Time;durP1;ratioP1;P1;durP2;ratioP2;P2;SDS_P1;SDS_P2;PMS_P1;PMS_P2;Temp;Humidity;BMP_temperature;BMP_pressure;BME280_temperature;BME280_humidity;BME280_pressure;Samples;Min_cycle;Max_cycle;Signal;HPM_P1;HPM_P2
2022/03/25 00:01:06;;;;;;;73.32;41.72;;;4.30;99.90;;;;;;5074500;28;20056;-70
2022/03/25 00:03:33;;;;;;;75.00;42.67;;;4.20;99.90;;;;;;5074875;28;20079;-70
2022/03/25 00:06:00;;;;;;;69.07;40.40;;;4.10;99.90;;;;;;5092331;28;20114;-69
2022/03/25 00:08:27;;;;;;;71.90;41.45;;;4.10;99.90;;;;;;5071641;28;20056;-69
2022/03/25 00:10:55;;;;;;;71.95;41.22;;;4.10;99.90;;;;;;5074138;28;20511;-69
2022/03/25 00:13:22;;;;;;;73.47;41.58;;;4.00;99.90;;;;;;5092467;28;20070;-69
2022/03/25 00:15:49;;;;;;;68.30;40.40;;;4.00;99.90;;;;;;5093070;28;20052;-68
2022/03/25 00:18:15;;;;;;;71.75;40.85;;;4.00;99.90;;;;;;5074857;28;20055;-67
2022/03/25 00:20:44;;;;;;;70.20;40.33;;;3.90;99.90;;;;;;5074274;28;20130;-68
2022/03/25 00:23:11;;;;;;;73.43;42.40;;;3.90;99.90;;;;;;5092308;28;20044;-68
2022/03/25 00:25:38;;;;;;;73.00;41.00;;;3.80;99.90;;;;;;5092595;28;20048;-68
2022/03/25 00:28:06;;;;;;;77.07;41.45;;;3.80;99.90;;;;;;5091996;28;20043;-69
2022/03/25 00:30:33;;;;;;;68.70;38.30;;;3.80;99.90;;;;;;5092562;28;20136;-69
2022/03/25 00:33:00;;;;;;;67.80;39.60;;;3.80;99.90;;;;;;5096852;28;20450;-70
2022/03/25 00:35:27;;;;;;;73.45;39.90;;;3.70;99.90;;;;;;5096210;28;20491;-70
2022/03/25 00:37:54;;;;;;;69.97;40.80;;;3.70;99.90;;;;;;5096836;28;20051;-70
2022/03/25 00:40:21;;;;;;;73.78;42.72;;;3.70;99.90;;;;;;5078712;28;20116;-70
2022/03/25 00:42:48;;;;;;;74.53;42.83;;;3.70;99.90;;;;;;5096649;28;20044;-70
2022/03/25 00:45:16;;;;;;;73.90;42.63;;;3.70;99.90;;;;;;5096811;28;20135;-70
2022/03/25 00:47:43;;;;;;;78.90;44.13;;;3.70;99.90;;;;;;5096306;28;20070;-70
2022/03/25 00:50:11;;;;;;;78.50;43.55;;;3.70;99.90;;;;;;5079073;28;20199;-70
2022/03/25 00:52:38;;;;;;;83.47;44.58;;;3.70;99.90;;;;;;5078603;28;20044;-70
2022/03/25 00:55:06;;;;;;;75.60;42.35;;;3.70;99.90;;;;;;5078051;28;20048;-70
2022/03/25 00:57:33;;;;;;;79.20;42.22;;;3.70;99.90;;;;;;5078520;28;20087;-70
2022/03/25 01:00:00;;;;;;;78.10;41.33;;;3.70;99.90;;;;;;5078717;28;20105;-70
2022/03/25 01:02:28;;;;;;;77.97;43.97;;;3.70;99.90;;;;;;5077781;28;20048;-70
2022/03/25 01:04:55;;;;;;;80.55;44.10;;;3.70;99.90;;;;;;5078663;28;20059;-70
2022/03/25 01:07:22;;;;;;;75.32;42.60;;;3.60;99.90;;;;;;5078106;28;20560;-69
2022/03/25 01:09:49;;;;;;;82.07;45.65;;;3.70;99.90;;;;;;5095532;28;20044;-69
2022/03/25 01:12:16;;;;;;;75.20;43.40;;;3.60;99.90;;;;;;5074850;28;20113;-69
2022/03/25 01:14:43;;;;;;;81.68;42.63;;;3.70;99.90;;;;;;5058010;28;20045;-71
2022/03/25 01:17:10;;;;;;;78.35;44.28;;;3.70;99.90;;;;;;5057677;28;20517;-70
2022/03/25 01:19:38;;;;;;;75.70;42.92;;;3.70;99.90;;;;;;5074872;28;20048;-69
2022/03/25 01:22:05;;;;;;;77.13;44.25;;;3.70;99.90;;;;;;5095894;28;20393;-70
2022/03/25 01:24:32;;;;;;;83.30;45.83;;;3.70;99.90;;;;;;5095469;28;20055;-70
2022/03/25 01:26:59;;;;;;;85.18;44.22;;;3.60;99.90;;;;;;5073401;28;20060;-70
2022/03/25 01:29:27;;;;;;;88.68;45.33;;;3.70;99.90;;;;;;5073576;28;20087;-70
2022/03/25 01:31:54;;;;;;;84.68;44.65;;;3.60;99.90;;;;;;5073004;28;20057;-70
2022/03/25 01:34:21;;;;;;;84.65;45.85;;;3.60;99.90;;;;;;5073022;28;20127;-70
2022/03/25 01:36:49;;;;;;;86.55;46.88;;;3.50;99.90;;;;;;5072866;28;20056;-69
2022/03/25 01:39:16;;;;;;;88.55;45.47;;;3.60;99.90;;;;;;5073274;28;20056;-70
2022/03/25 01:41:47;;;;;;;82.38;43.13;;;3.60;99.90;;;;;;5073822;28;20053;-71
2022/03/25 01:44:15;;;;;;;81.47;43.13;;;3.50;99.90;;;;;;5073915;28;20048;-71
2022/03/25 01:46:42;;;;;;;79.50;44.45;;;3.50;99.90;;;;;;5069708;28;20048;-71
2022/03/25 01:49:09;;;;;;;85.10;46.55;;;3.50;99.90;;;;;;5054093;28;20569;-70
2022/03/25 01:51:37;;;;;;;77.57;42.13;;;3.50;99.90;;;;;;5072136;28;20053;-70
2022/03/25 01:54:10;;;;;;;83.75;43.90;;;3.50;99.90;;;;;;5069130;28;20077;-70
2022/03/25 01:56:37;;;;;;;77.15;44.25;;;3.40;99.90;;;;;;5053113;28;20056;-70
2022/03/25 01:59:05;;;;;;;78.65;44.20;;;3.50;99.90;;;;;;5052505;28;20107;-71
2022/03/25 02:01:32;;;;;;;79.70;43.13;;;3.50;99.90;;;;;;5054108;28;20051;-70
2022/03/25 02:03:58;;;;;;;78.38;42.80;;;3.40;99.90;;;;;;5054197;28;20558;-70
2022/03/25 02:06:25;;;;;;;72.68;41.95;;;3.40;99.90;;;;;;5073388;28;20041;-70
2022/03/25 02:08:52;;;;;;;77.95;43.15;;;3.30;99.90;;;;;;5072055;28;20044;-70
2022/03/25 02:11:21;;;;;;;78.20;41.92;;;3.40;99.90;;;;;;5073433;28;20056;-70
2022/03/25 02:13:47;;;;;;;72.05;40.70;;;3.40;99.90;;;;;;5072624;28;20052;-70
2022/03/25 02:16:14;;;;;;;74.53;41.17;;;3.40;99.90;;;;;;5072601;28;20394;-70
2022/03/25 02:18:41;;;;;;;80.18;42.20;;;3.40;99.90;;;;;;5073355;28;20045;-70
2022/03/25 02:21:08;;;;;;;75.50;40.80;;;3.30;99.90;;;;;;5072379;28;20106;-70
2022/03/25 02:23:36;;;;;;;75.93;40.10;;;3.30;99.90;;;;;;5073317;28;20094;-69
2022/03/25 02:26:05;;;;;;;72.65;41.25;;;3.30;99.90;;;;;;5043936;28;1070867;-69
2022/03/25 02:28:32;;;;;;;72.65;40.22;;;3.30;99.90;;;;;;5076407;28;20058;-69
2022/03/25 02:30:59;;;;;;;71.00;38.35;;;3.30;99.90;;;;;;5056927;28;20079;-69
2022/03/25 02:33:26;;;;;;;72.22;40.40;;;3.20;99.90;;;;;;5070904;28;20052;-69
2022/03/25 02:35:53;;;;;;;75.05;41.35;;;3.20;99.90;;;;;;5076729;28;20125;-69
2022/03/25 02:38:22;;;;;;;76.95;41.05;;;3.20;99.90;;;;;;5076628;28;20052;-69
2022/03/25 02:40:51;;;;;;;76.45;40.72;;;3.20;99.90;;;;;;5093654;28;20449;-70
2022/03/25 02:43:18;;;;;;;72.63;41.35;;;3.20;99.90;;;;;;5093965;28;20048;-69
2022/03/25 02:45:45;;;;;;;63.60;36.70;;;3.10;99.90;;;;;;5076557;28;20056;-70
2022/03/25 02:48:12;;;;;;;60.60;34.58;;;3.10;99.90;;;;;;5093753;28;20109;-70
2022/03/25 02:50:40;;;;;;;49.20;31.13;;;3.10;99.90;;;;;;5094608;28;20044;-69
2022/03/25 02:53:07;;;;;;;43.30;27.08;;;3.00;99.90;;;;;;5075973;28;20048;-69
2022/03/25 02:55:34;;;;;;;42.45;25.60;;;2.90;99.90;;;;;;5093039;28;20499;-69
2022/03/25 02:58:03;;;;;;;39.80;25.70;;;2.80;99.90;;;;;;5075800;28;20109;-69
2022/03/25 03:00:30;;;;;;;38.28;23.70;;;2.80;99.90;;;;;;5094032;28;20044;-69
2022/03/25 03:03:00;;;;;;;38.55;24.73;;;2.70;99.90;;;;;;5093700;28;20130;-70
2022/03/25 03:05:27;;;;;;;36.03;23.77;;;2.50;99.90;;;;;;5094168;28;20499;-71
2022/03/25 03:07:54;;;;;;;33.13;23.00;;;2.50;99.90;;;;;;5076001;28;20097;-70
2022/03/25 03:10:22;;;;;;;33.55;22.55;;;2.40;99.90;;;;;;5075189;28;20052;-70
2022/03/25 03:12:49;;;;;;;34.58;22.00;;;2.30;99.90;;;;;;5072338;28;20109;-69
2022/03/25 03:15:17;;;;;;;36.03;23.08;;;2.20;99.90;;;;;;5086400;28;20495;-70
2022/03/25 03:17:45;;;;;;;35.30;23.40;;;2.20;99.90;;;;;;5093856;28;20113;-69
2022/03/25 03:20:13;;;;;;;38.15;23.33;;;2.20;99.90;;;;;;5076002;28;20120;-69
2022/03/25 03:22:40;;;;;;;41.88;26.15;;;2.20;99.90;;;;;;5074900;28;20495;-69
2022/03/25 03:25:08;;;;;;;41.25;25.90;;;2.20;99.90;;;;;;5075238;28;20056;-69
2022/03/25 03:27:35;;;;;;;41.13;24.98;;;2.20;99.90;;;;;;5075311;28;20109;-70
2022/03/25 03:30:02;;;;;;;47.15;28.73;;;2.30;99.90;;;;;;5075099;28;20052;-70
2022/03/25 03:32:30;;;;;;;43.55;25.73;;;2.20;99.90;;;;;;5075285;28;20109;-70
2022/03/25 03:34:57;;;;;;;44.58;25.15;;;2.10;99.90;;;;;;5075224;28;20051;-70
2022/03/25 03:37:24;;;;;;;44.33;25.15;;;2.10;99.90;;;;;;5093015;28;20048;-70
2022/03/25 03:39:52;;;;;;;42.00;25.15;;;2.00;99.90;;;;;;5093200;28;20050;-70
2022/03/25 03:42:19;;;;;;;40.47;23.83;;;2.00;99.90;;;;;;5093404;28;20048;-70
2022/03/25 03:44:46;;;;;;;37.05;23.90;;;2.00;99.90;;;;;;5074369;28;20399;-70
2022/03/25 03:47:14;;;;;;;35.08;21.58;;;2.00;99.90;;;;;;5071815;28;20052;-69
2022/03/25 03:49:42;;;;;;;35.47;22.75;;;2.00;99.90;;;;;;5055019;28;20131;-69
2022/03/25 03:52:09;;;;;;;43.38;25.30;;;2.00;99.90;;;;;;5076865;28;20108;-70
2022/03/25 03:54:37;;;;;;;48.60;28.30;;;1.90;99.90;;;;;;5092987;28;20052;-70
2022/03/25 03:57:07;;;;;;;48.00;28.88;;;1.90;99.90;;;;;;5075222;28;20044;-69
2022/03/25 03:59:34;;;;;;;46.10;27.45;;;1.90;99.90;;;;;;5092360;28;20048;-69
2022/03/25 04:02:01;;;;;;;46.08;27.20;;;1.90;99.90;;;;;;5093125;28;20044;-70
2022/03/25 04:04:28;;;;;;;49.55;28.50;;;1.90;99.90;;;;;;5074368;28;20500;-69
2022/03/25 04:06:56;;;;;;;49.10;29.17;;;1.90;99.90;;;;;;5093003;28;20087;-69
2022/03/25 04:09:23;;;;;;;47.13;27.75;;;1.80;99.90;;;;;;5075118;28;20101;-69
2022/03/25 04:11:50;;;;;;;43.63;27.95;;;1.80;99.90;;;;;;5092268;28;20048;-69
2022/03/25 04:14:16;;;;;;;45.83;27.67;;;1.80;99.90;;;;;;5093078;28;20101;-69
2022/03/25 04:16:43;;;;;;;48.33;28.77;;;1.80;99.90;;;;;;5092914;28;20048;-69
2022/03/25 04:19:10;;;;;;;45.42;27.25;;;1.80;99.90;;;;;;5074451;28;20051;-69
2022/03/25 04:21:37;;;;;;;45.45;26.50;;;1.80;99.90;;;;;;5092913;28;20048;-69
2022/03/25 04:24:06;;;;;;;48.85;27.63;;;1.80;99.90;;;;;;5074725;28;20052;-69
2022/03/25 04:26:33;;;;;;;43.80;26.85;;;1.70;99.90;;;;;;5070517;28;20106;-69
2022/03/25 04:29:00;;;;;;;46.45;27.02;;;1.70;99.90;;;;;;5072748;28;20109;-69
2022/03/25 04:31:27;;;;;;;45.22;27.30;;;1.70;99.90;;;;;;5071448;28;20048;-70
2022/03/25 04:33:54;;;;;;;46.22;26.88;;;1.70;99.90;;;;;;5070598;28;20044;-70
2022/03/25 04:36:21;;;;;;;41.45;25.52;;;1.70;99.90;;;;;;5071683;28;20110;-70
2022/03/25 04:38:48;;;;;;;41.65;26.55;;;1.70;99.90;;;;;;5071712;28;20053;-69
2022/03/25 04:41:16;;;;;;;45.22;27.33;;;1.70;99.90;;;;;;5070720;28;20463;-70
2022/03/25 04:43:43;;;;;;;41.97;26.38;;;1.60;99.90;;;;;;5068177;28;20045;-70
2022/03/25 04:46:09;;;;;;;43.05;25.90;;;1.60;99.90;;;;;;5052569;28;20060;-71
2022/03/25 04:48:38;;;;;;;47.83;27.55;;;1.60;99.90;;;;;;5051865;28;20064;-70
2022/03/25 04:51:05;;;;;;;46.35;26.50;;;1.60;99.90;;;;;;5051113;28;20501;-70
2022/03/25 04:53:33;;;;;;;43.83;25.85;;;1.60;99.90;;;;;;5067094;28;20059;-70
2022/03/25 04:55:59;;;;;;;42.85;26.52;;;1.50;99.90;;;;;;5071909;28;20060;-71
2022/03/25 04:58:28;;;;;;;45.92;26.23;;;1.50;99.90;;;;;;5072886;28;20059;-70
2022/03/25 05:00:55;;;;;;;42.53;24.92;;;1.50;99.90;;;;;;5071685;28;20041;-70
2022/03/25 05:03:22;;;;;;;43.70;26.67;;;1.50;99.90;;;;;;5072251;28;20113;-70
2022/03/25 05:05:49;;;;;;;46.85;26.75;;;1.50;99.90;;;;;;5071278;28;20127;-70
2022/03/25 05:08:16;;;;;;;40.78;25.02;;;1.50;99.90;;;;;;5071128;28;20048;-70
2022/03/25 05:10:44;;;;;;;44.35;25.80;;;1.40;99.90;;;;;;5071399;28;20630;-69
2022/03/25 05:13:11;;;;;;;48.42;26.15;;;1.40;99.90;;;;;;5070826;28;20439;-70
2022/03/25 05:15:39;;;;;;;47.53;28.25;;;1.40;99.90;;;;;;5070309;28;20058;-70
2022/03/25 05:18:06;;;;;;;48.78;26.42;;;1.40;99.90;;;;;;5073314;28;20064;-70
2022/03/25 05:20:33;;;;;;;44.47;27.23;;;1.40;99.90;;;;;;5075995;28;20080;-70
2022/03/25 05:23:00;;;;;;;49.67;28.02;;;1.50;99.90;;;;;;5074896;28;20052;-70
2022/03/25 05:25:27;;;;;;;50.13;27.75;;;1.50;99.90;;;;;;5074282;28;20145;-70
2022/03/25 05:27:57;;;;;;;53.75;28.92;;;1.50;99.90;;;;;;5075719;28;20048;-70
2022/03/25 05:30:25;;;;;;;51.13;29.98;;;1.60;99.90;;;;;;5073883;28;20048;-70
2022/03/25 05:32:54;;;;;;;47.83;28.35;;;1.50;99.90;;;;;;5075059;28;20488;-70
2022/03/25 05:35:22;;;;;;;47.05;29.23;;;1.50;99.90;;;;;;5074307;28;20135;-70
2022/03/25 05:37:49;;;;;;;46.28;26.88;;;1.60;99.90;;;;;;5074034;28;20056;-70
2022/03/25 05:40:18;;;;;;;44.63;25.73;;;1.60;99.90;;;;;;5075534;28;20052;-69
2022/03/25 05:42:45;;;;;;;46.03;25.15;;;1.70;99.90;;;;;;5073569;28;20057;-70
2022/03/25 05:45:12;;;;;;;47.03;26.83;;;1.70;99.90;;;;;;5075289;28;20091;-70
2022/03/25 05:47:41;;;;;;;48.30;28.35;;;1.80;99.90;;;;;;5075186;28;20052;-70
2022/03/25 05:50:11;;;;;;;50.05;28.35;;;1.90;99.90;;;;;;5054879;28;20049;-69
2022/03/25 05:52:38;;;;;;;48.60;28.83;;;1.90;99.90;;;;;;5062363;28;20052;-71
2022/03/25 05:55:06;;;;;;;47.80;27.90;;;2.00;99.90;;;;;;5075283;28;20554;-71
2022/03/25 05:57:33;;;;;;;45.58;27.20;;;2.10;99.90;;;;;;5074505;28;20460;-70
2022/03/25 06:00:00;;;;;;;48.30;28.13;;;2.10;99.90;;;;;;5075015;28;20106;-70
2022/03/25 06:02:27;;;;;;;45.25;27.45;;;2.20;99.90;;;;;;5073672;28;20102;-71
2022/03/25 06:04:55;;;;;;;44.88;27.00;;;2.20;99.90;;;;;;5073274;28;20048;-71
2022/03/25 06:07:24;;;;;;;48.00;27.50;;;2.30;99.90;;;;;;5073744;28;20519;-70
2022/03/25 06:09:51;;;;;;;45.17;28.05;;;2.30;99.90;;;;;;5073930;28;20052;-70
2022/03/25 06:12:18;;;;;;;42.28;26.48;;;2.40;99.90;;;;;;5074194;28;20094;-70
2022/03/25 06:14:45;;;;;;;45.00;26.92;;;2.40;99.90;;;;;;5075170;28;20072;-71
2022/03/25 06:17:12;;;;;;;45.85;26.73;;;2.50;99.90;;;;;;5074797;28;20044;-71
2022/03/25 06:19:38;;;;;;;43.80;26.58;;;2.70;99.90;;;;;;5074358;28;20052;-70
2022/03/25 06:22:05;;;;;;;47.83;28.13;;;2.70;99.90;;;;;;5073270;28;20056;-70
2022/03/25 06:24:33;;;;;;;42.53;26.38;;;2.90;99.90;;;;;;5073189;28;20049;-70
2022/03/25 06:27:00;;;;;;;44.88;27.35;;;3.00;99.90;;;;;;5072630;28;20122;-71
2022/03/25 06:29:27;;;;;;;45.75;27.75;;;3.10;99.90;;;;;;5072234;28;20079;-71
2022/03/25 06:31:54;;;;;;;49.35;29.60;;;3.30;99.90;;;;;;5073992;28;20553;-70
2022/03/25 06:34:23;;;;;;;51.80;31.13;;;3.30;99.90;;;;;;5073891;28;20106;-70
2022/03/25 06:36:50;;;;;;;58.70;33.58;;;3.50;99.90;;;;;;5074514;28;20393;-70
2022/03/25 06:39:17;;;;;;;60.15;33.00;;;3.80;99.90;;;;;;5072920;28;20056;-70
2022/03/25 06:41:45;;;;;;;60.53;34.13;;;4.30;99.90;;;;;;5073719;28;20381;-69
2022/03/25 06:44:12;;;;;;;64.07;33.88;;;4.80;99.90;;;;;;5074347;28;20098;-71
2022/03/25 06:46:39;;;;;;;57.40;33.42;;;5.20;99.90;;;;;;5072704;28;20052;-70
2022/03/25 06:49:07;;;;;;;53.50;32.90;;;5.60;99.90;;;;;;5074270;28;20048;-70
2022/03/25 06:51:34;;;;;;;51.53;31.48;;;6.10;99.90;;;;;;5073173;28;20098;-70
2022/03/25 06:54:02;;;;;;;53.33;31.00;;;6.50;99.90;;;;;;5071514;28;20110;-70
2022/03/25 06:56:29;;;;;;;54.22;33.08;;;6.70;99.90;;;;;;5064297;28;20739;-71
2022/03/25 06:58:58;;;;;;;51.83;32.70;;;7.10;99.90;;;;;;5060408;28;20570;-71
2022/03/25 07:01:26;;;;;;;49.30;31.70;;;7.60;99.90;;;;;;5067178;28;20044;-71
2022/03/25 07:03:53;;;;;;;47.15;29.17;;;8.20;99.90;;;;;;5065229;28;20058;-72
2022/03/25 07:06:24;;;;;;;42.75;28.65;;;8.90;99.90;;;;;;5069737;28;20568;-71
2022/03/25 07:08:54;;;;;;;45.28;28.08;;;9.80;99.90;;;;;;5061206;28;20504;-72
2022/03/25 07:11:22;;;;;;;39.75;25.35;;;10.50;99.90;;;;;;5069049;28;20492;-71
2022/03/25 07:13:50;;;;;;;36.63;25.10;;;11.20;99.90;;;;;;5068610;28;20098;-71
2022/03/25 07:16:19;;;;;;;37.45;26.42;;;11.80;99.90;;;;;;5059184;28;20053;-71
2022/03/25 07:18:46;;;;;;;38.80;26.05;;;12.30;99.90;;;;;;5059243;28;20036;-72
2022/03/25 07:21:13;;;;;;;41.47;25.80;;;12.90;99.90;;;;;;5062936;28;20099;-72
2022/03/25 07:23:40;;;;;;;34.72;24.13;;;13.50;99.90;;;;;;5066162;28;20400;-73
2022/03/25 07:26:07;;;;;;;35.28;24.67;;;14.00;99.90;;;;;;5080364;28;20052;-72
2022/03/25 07:28:35;;;;;;;36.00;23.77;;;14.20;99.90;;;;;;5069371;28;20048;-72
2022/03/25 07:31:02;;;;;;;33.15;23.10;;;14.60;99.90;;;;;;5089535;28;20052;-71
2022/03/25 07:33:30;;;;;;;33.13;22.55;;;14.90;99.90;;;;;;5069119;28;20040;-71
2022/03/25 07:35:57;;;;;;;32.53;22.45;;;15.30;99.90;;;;;;5069037;28;20585;-71
2022/03/25 07:38:24;;;;;;;31.65;21.77;;;15.50;99.90;;;;;;5066946;28;20049;-72
2022/03/25 07:40:51;;;;;;;33.80;22.85;;;15.80;99.90;;;;;;5066724;28;20048;-71
2022/03/25 07:43:18;;;;;;;27.92;20.88;;;16.10;99.20;;;;;;5065665;28;20106;-72
2022/03/25 07:45:45;;;;;;;29.00;21.08;;;16.60;98.20;;;;;;5085346;28;20086;-73
2022/03/25 07:48:12;;;;;;;29.35;21.08;;;16.90;96.70;;;;;;5065915;28;20049;-71
2022/03/25 07:50:40;;;;;;;29.92;21.75;;;17.10;95.30;;;;;;5084614;28;20407;-71
2022/03/25 07:53:07;;;;;;;30.08;20.55;;;17.20;93.20;;;;;;5084327;28;20113;-72
2022/03/25 07:55:34;;;;;;;26.13;19.55;;;17.40;92.60;;;;;;5092170;28;20044;-71
2022/03/25 07:58:01;;;;;;;25.33;18.70;;;17.80;91.40;;;;;;5084876;28;20048;-71
2022/03/25 08:00:28;;;;;;;26.27;19.98;;;18.30;90.20;;;;;;5068727;28;20059;-72
2022/03/25 08:02:55;;;;;;;25.15;18.88;;;18.70;87.50;;;;;;5086666;28;20047;-73
2022/03/25 08:05:23;;;;;;;22.25;17.15;;;19.10;84.40;;;;;;5086261;28;20101;-72
2022/03/25 08:07:54;;;;;;;25.98;17.38;;;19.40;79.80;;;;;;5084885;28;20406;-73
2022/03/25 08:10:22;;;;;;;26.30;19.38;;;19.50;76.40;;;;;;5086762;28;20044;-72
2022/03/25 08:12:50;;;;;;;25.15;18.40;;;19.60;76.10;;;;;;5067298;28;20085;-72
2022/03/25 08:15:17;;;;;;;24.23;17.90;;;19.80;74.60;;;;;;5065416;28;20052;-73
2022/03/25 08:17:49;;;;;;;24.48;16.77;;;20.30;73.60;;;;;;5066145;28;20059;-73
2022/03/25 08:20:24;;;;;;;22.27;17.25;;;20.50;68.50;;;;;;5083221;28;20044;-74
2022/03/25 08:22:53;;;;;;;21.85;16.77;;;20.30;66.20;;;;;;5067760;28;20059;-72
2022/03/25 08:28:04;;;;;;;22.05;16.23;;;20.00;67.10;;;;;;5087342;28;20048;-72
2022/03/25 08:30:32;;;;;;;22.58;16.05;;;20.00;66.60;;;;;;5073115;28;20052;-73
2022/03/25 08:33:00;;;;;;;22.70;16.13;;;19.40;65.40;;;;;;5083758;28;20040;-73
2022/03/25 08:35:27;;;;;;;21.92;16.65;;;19.60;66.10;;;;;;5068287;28;20087;-72
2022/03/25 08:37:57;;;;;;;25.45;16.75;;;19.50;65.70;;;;;;5084818;28;20052;-73
2022/03/25 08:40:26;;;;;;;19.65;15.25;;;19.90;65.60;;;;;;5071113;28;20084;-73
2022/03/25 08:42:53;;;;;;;21.65;16.05;;;20.40;64.40;;;;;;5065337;28;20122;-72
2022/03/25 08:45:20;;;;;;;19.88;15.73;;;20.90;63.20;;;;;;5086112;28;20032;-72
2022/03/25 08:47:48;;;;;;;18.55;14.60;;;21.60;62.20;;;;;;5067059;28;20105;-74
2022/03/25 08:50:17;;;;;;;22.63;16.00;;;22.00;61.90;;;;;;5069714;28;20045;-72
2022/03/25 08:52:46;;;;;;;21.97;14.87;;;22.40;60.50;;;;;;5056151;28;20048;-72
2022/03/25 08:55:15;;;;;;;21.80;16.02;;;22.80;59.70;;;;;;5078887;28;20053;-73
2022/03/25 08:57:42;;;;;;;20.95;16.23;;;23.00;58.80;;;;;;5095800;28;20043;-72
2022/03/25 09:00:12;;;;;;;19.60;14.48;;;23.00;58.40;;;;;;5078239;28;20137;-71
2022/03/25 09:02:39;;;;;;;21.70;14.57;;;23.20;57.90;;;;;;5096552;28;20483;-72
2022/03/25 09:05:07;;;;;;;20.65;14.43;;;23.50;57.20;;;;;;5096723;28;20445;-72
2022/03/25 09:07:36;;;;;;;21.77;14.95;;;23.80;56.50;;;;;;5077706;28;20052;-71
2022/03/25 09:10:03;;;;;;;21.83;14.93;;;24.10;56.30;;;;;;5096386;28;20055;-72
2022/03/25 09:12:32;;;;;;;22.98;15.75;;;24.40;55.60;;;;;;5078527;28;20144;-72
2022/03/25 09:14:59;;;;;;;21.45;15.25;;;24.60;55.00;;;;;;5096005;28;20105;-71
2022/03/25 09:17:26;;;;;;;18.80;14.25;;;24.60;54.70;;;;;;5096379;28;20055;-72
2022/03/25 09:19:53;;;;;;;21.10;13.77;;;24.70;54.50;;;;;;5078390;28;20056;-73
2022/03/25 09:22:20;;;;;;;18.20;13.23;;;24.50;53.70;;;;;;5096864;28;20492;-71
2022/03/25 09:24:47;;;;;;;21.33;14.57;;;24.40;52.50;;;;;;5079626;28;20405;-72
2022/03/25 09:27:14;;;;;;;23.33;15.18;;;24.30;52.80;;;;;;5096230;28;20060;-72
2022/03/25 09:29:43;;;;;;;25.92;14.60;;;24.40;52.50;;;;;;5077342;28;20054;-72
2022/03/25 09:32:10;;;;;;;20.00;14.40;;;24.70;52.90;;;;;;5078245;28;20055;-72
2022/03/25 09:37:21;;;;;;;20.65;12.75;;;24.90;51.70;;;;;;5095710;28;20055;-72
2022/03/25 09:39:49;;;;;;;17.60;13.02;;;25.00;51.70;;;;;;5078046;28;20044;-72
2022/03/25 09:42:16;;;;;;;17.83;13.18;;;25.00;51.10;;;;;;5077476;28;20408;-74
2022/03/25 09:44:45;;;;;;;17.42;13.00;;;25.30;50.60;;;;;;5077601;28;20048;-72
2022/03/25 09:47:14;;;;;;;18.53;14.60;;;25.40;49.70;;;;;;5078348;28;20492;-72
2022/03/25 09:49:41;;;;;;;20.02;12.18;;;25.50;49.70;;;;;;5076995;28;20052;-74
2022/03/25 09:52:09;;;;;;;16.05;13.30;;;25.90;49.30;;;;;;5095899;28;20105;-72
2022/03/25 09:54:36;;;;;;;18.88;13.02;;;26.30;48.70;;;;;;5077805;28;20055;-72
2022/03/25 09:57:03;;;;;;;22.15;13.40;;;26.30;48.80;;;;;;5077231;28;20052;-73
2022/03/25 09:59:30;;;;;;;18.05;13.32;;;26.50;48.80;;;;;;5095997;28;20047;-72
2022/03/25 10:01:58;;;;;;;19.20;13.55;;;26.50;48.60;;;;;;5077409;28;20113;-73
2022/03/25 10:04:42;;;;;;;17.48;13.00;;;26.70;48.10;;;;;;5076744;28;20446;-69
2022/03/25 10:07:20;;;;;;;21.08;13.82;;;27.20;46.90;;;;;;5077482;28;20048;-72
2022/03/25 10:09:49;;;;;;;20.58;13.13;;;26.90;47.60;;;;;;5095273;28;20456;-72
2022/03/25 10:12:23;;;;;;;19.48;14.63;;;26.70;47.60;;;;;;5095579;28;20124;-72
2022/03/25 10:14:51;;;;;;;17.77;14.30;;;26.60;46.40;;;;;;5078001;28;20377;-72
2022/03/25 10:17:20;;;;;;;18.27;14.38;;;26.40;47.20;;;;;;5076974;28;20495;-73
2022/03/25 10:19:48;;;;;;;19.20;13.47;;;26.30;46.90;;;;;;5077180;28;20064;-72
2022/03/25 10:22:17;;;;;;;18.15;13.95;;;26.40;47.50;;;;;;5095185;28;20127;-72
2022/03/25 10:24:46;;;;;;;20.87;14.97;;;26.40;47.50;;;;;;5094896;28;20514;-72
2022/03/25 10:27:13;;;;;;;19.48;14.45;;;26.30;47.40;;;;;;5095613;28;20054;-71
2022/03/25 10:29:43;;;;;;;19.23;14.68;;;26.20;47.10;;;;;;5077643;28;20109;-72
2022/03/25 10:32:11;;;;;;;19.33;14.38;;;26.10;47.10;;;;;;5076535;28;20056;-72
2022/03/25 10:34:41;;;;;;;20.05;16.00;;;26.10;46.50;;;;;;5076802;28;20055;-72
2022/03/25 10:37:11;;;;;;;20.75;14.98;;;26.60;46.50;;;;;;5095153;28;20105;-72
2022/03/25 10:39:38;;;;;;;20.77;14.35;;;27.10;46.70;;;;;;5076122;28;20136;-72
2022/03/25 10:42:07;;;;;;;20.85;14.55;;;26.90;46.40;;;;;;5094713;28;20066;-72
2022/03/25 10:44:36;;;;;;;23.70;15.50;;;27.00;45.80;;;;;;5094881;28;20116;-72
2022/03/25 10:47:26;;;;;;;18.35;15.32;;;26.90;46.60;;;;;;5093961;28;20302;-72
2022/03/25 10:49:55;;;;;;;20.40;15.25;;;26.80;46.50;;;;;;5076710;28;20055;-71
2022/03/25 10:52:30;;;;;;;23.00;16.30;;;27.20;46.80;;;;;;5094271;28;20048;-72
2022/03/25 10:55:21;;;;;;;23.17;14.85;;;27.50;46.20;;;;;;5094591;28;20066;-72
2022/03/25 10:57:49;;;;;;;25.20;15.05;;;27.70;45.70;;;;;;5094773;28;20105;-72
2022/03/25 11:00:16;;;;;;;19.13;14.75;;;28.10;46.40;;;;;;5093972;28;20059;-72
2022/03/25 11:02:44;;;;;;;22.80;14.43;;;28.20;46.00;;;;;;5094411;28;20051;-72
2022/03/25 11:05:13;;;;;;;22.38;16.58;;;28.00;45.80;;;;;;5094289;28;20048;-72
2022/03/25 11:07:42;;;;;;;20.67;14.90;;;27.90;46.10;;;;;;5093950;28;20541;-71
2022/03/25 11:10:12;;;;;;;26.97;16.80;;;27.60;45.40;;;;;;5075942;28;20105;-72
2022/03/25 11:12:41;;;;;;;23.40;14.80;;;27.60;45.50;;;;;;5076029;28;20101;-72
2022/03/25 11:15:11;;;;;;;23.17;14.75;;;27.90;45.60;;;;;;5074991;28;20523;-72
2022/03/25 11:17:39;;;;;;;;;;;28.20;45.70;;;;;;5076741;28;20121;-72
2022/03/25 11:20:08;;;;;;;21.40;15.60;;;28.00;45.60;;;;;;5076348;28;19946;-72
2022/03/25 11:22:42;;;;;;;20.73;15.75;;;28.70;45.90;;;;;;5075733;28;20052;-73
2022/03/25 11:25:11;;;;;;;20.48;15.07;;;28.70;45.10;;;;;;5094325;28;20462;-73
2022/03/25 11:27:40;;;;;;;20.08;14.68;;;29.10;45.20;;;;;;5093697;28;20048;-73
2022/03/25 11:30:10;;;;;;;21.55;14.15;;;29.10;45.00;;;;;;5093755;28;20511;-72
2022/03/25 11:32:48;;;;;;;21.92;14.75;;;29.20;44.80;;;;;;5075568;28;20059;-72
2022/03/25 11:35:20;;;;;;;20.58;14.68;;;29.60;44.00;;;;;;5075374;28;20048;-72
2022/03/25 11:38:09;;;;;;;18.30;13.93;;;29.40;43.40;;;;;;5075946;28;20054;-72
2022/03/25 11:40:36;;;;;;;18.02;13.82;;;29.40;44.40;;;;;;5075403;28;20101;-72
2022/03/25 11:43:14;;;;;;;21.92;14.25;;;29.30;43.70;;;;;;5075123;28;20052;-72
2022/03/25 11:45:41;;;;;;;20.52;13.45;;;29.50;43.50;;;;;;5075916;28;20048;-72
2022/03/25 11:48:50;;;;;;;19.40;12.88;;;29.10;44.10;;;;;;5075974;28;20052;-72
2022/03/25 11:51:33;;;;;;;18.20;11.77;;;29.30;43.00;;;;;;5093595;28;20097;-72
2022/03/25 11:54:04;;;;;;;17.48;11.68;;;29.10;42.50;;;;;;5093795;28;20151;-72
2022/03/25 11:56:50;;;;;;;20.67;11.98;;;28.90;42.60;;;;;;5075172;28;20132;-72
2022/03/25 11:59:18;;;;;;;18.10;10.63;;;28.90;41.70;;;;;;5093686;28;20491;-72
2022/03/25 12:01:45;;;;;;;16.38;10.65;;;29.10;42.10;;;;;;5075592;28;20529;-72
2022/03/25 12:04:15;;;;;;;17.67;11.48;;;28.90;42.70;;;;;;5092743;28;20048;-72
2022/03/25 12:06:59;;;;;;;;;;;29.00;41.60;;;;;;5075700;28;20471;-72
2022/03/25 12:09:34;;;;;;;13.25;9.52;;;28.90;41.20;;;;;;5075221;28;19970;-72
2022/03/25 12:12:01;;;;;;;14.80;9.70;;;29.20;41.30;;;;;;5092855;28;20044;-72
2022/03/25 12:14:31;;;;;;;14.18;10.18;;;29.40;41.60;;;;;;5075390;28;20051;-72
2022/03/25 12:16:59;;;;;;;;;;;29.50;41.60;;;;;;5093389;28;20048;-71
2022/03/25 12:19:48;;;;;;;13.75;9.90;;;29.50;41.10;;;;;;5075478;28;20325;-72
2022/03/25 12:22:33;;;;;;;16.50;10.33;;;30.00;41.30;;;;;;5075391;28;20101;-72
2022/03/25 12:25:09;;;;;;;14.75;10.82;;;29.90;41.20;;;;;;5092398;28;20077;-72
2022/03/25 12:27:36;;;;;;;15.75;10.70;;;29.70;41.30;;;;;;5076240;28;20496;-72
2022/03/25 12:30:03;;;;;;;18.42;14.50;;;29.40;42.60;;;;;;5058931;28;20044;-72
2022/03/25 12:32:34;;;;;;;21.77;14.70;;;28.80;43.20;;;;;;5076699;28;20049;-71
2022/03/25 12:35:03;;;;;;;18.00;14.48;;;29.00;43.70;;;;;;5077059;28;20084;-72
2022/03/25 12:37:37;;;;;;;20.00;16.00;;;29.10;43.70;;;;;;5059104;28;20041;-72
2022/03/25 12:40:13;;;;;;;25.15;16.13;;;29.40;43.90;;;;;;5076513;28;20048;-71
2022/03/25 12:42:41;;;;;;;19.17;15.23;;;29.10;43.10;;;;;;5077176;28;20470;-72
2022/03/25 12:45:09;;;;;;;18.70;15.73;;;29.50;43.10;;;;;;5058454;28;20118;-72